createdAt,value
2022-09-11T00:01:31.413Z,66.20
2022-09-11T00:03:58.735Z,66.20
2022-09-11T00:06:30.554Z,66.49
2022-09-11T00:09:01.400Z,66.47
2022-09-11T00:11:34.830Z,66.00
2022-09-11T00:14:02.386Z,66.34
2022-09-11T00:16:34.936Z,66.34
2022-09-11T00:19:20.537Z,66.51
2022-09-11T00:21:50.629Z,66.12
2022-09-11T00:24:17.771Z,65.98
2022-09-11T00:26:47.657Z,66.13
2022-09-11T00:29:14.347Z,65.94
2022-09-11T00:31:41.775Z,65.93
2022-09-11T00:34:09.263Z,65.88
2022-09-11T00:36:37.701Z,66.02
2022-09-11T00:39:04.801Z,65.73
2022-09-11T00:41:36.483Z,65.82
2022-09-11T00:44:05.485Z,66.05
2022-09-11T00:46:38.220Z,65.93
2022-09-11T00:49:18.025Z,65.70
2022-09-11T00:51:47.324Z,65.89
2022-09-11T00:54:16.484Z,65.93
2022-09-11T00:56:44.149Z,65.87
2022-09-11T00:59:12.877Z,66.21
2022-09-11T01:01:39.783Z,66.06
2022-09-11T01:04:08.158Z,66.15
2022-09-11T01:06:35.354Z,66.06
2022-09-11T01:09:02.077Z,66.24
2022-09-11T01:11:49.353Z,66.18
2022-09-11T01:14:34.275Z,65.95
2022-09-11T01:17:22.974Z,66.13
2022-09-11T01:20:34.227Z,66.02
2022-09-11T01:23:26.454Z,66.46
2022-09-11T01:26:08.306Z,66.19
2022-09-11T01:28:58.897Z,66.16
2022-09-11T01:31:30.762Z,66.37
2022-09-11T01:34:00.038Z,66.26
2022-09-11T01:36:36.429Z,65.92
2022-09-11T01:39:04.926Z,66.12
2022-09-11T01:42:14.848Z,66.09
2022-09-11T01:44:50.475Z,66.15
2022-09-11T01:47:20.073Z,66.16
2022-09-11T01:49:56.471Z,66.32
2022-09-11T01:52:28.197Z,66.34
2022-09-11T01:55:01.945Z,66.39
2022-09-11T01:57:49.935Z,66.40
2022-09-11T02:00:17.467Z,66.35
2022-09-11T02:02:49.589Z,66.47
2022-09-11T02:05:25.547Z,66.46
2022-09-11T02:08:11.492Z,66.34
2022-09-11T02:10:47.452Z,66.43
2022-09-11T02:13:31.106Z,66.32
2022-09-11T02:16:11.908Z,66.25
2022-09-11T02:18:48.667Z,66.28
2022-09-11T02:21:15.552Z,66.78
2022-09-11T02:23:42.596Z,66.71
2022-09-11T02:26:13.209Z,66.59
2022-09-11T02:28:40.732Z,66.72
2022-09-11T02:31:08.367Z,66.58
2022-09-11T02:33:37.112Z,66.74
2022-09-11T02:36:22.574Z,66.78
2022-09-11T02:39:07.594Z,66.75
2022-09-11T02:41:50.395Z,66.78
2022-09-11T02:44:31.845Z,66.89
2022-09-11T02:47:04.660Z,67.16
2022-09-11T02:49:59.285Z,67.33
2022-09-11T02:52:48.253Z,67.84
2022-09-11T02:55:29.774Z,68.49
2022-09-11T02:58:05.073Z,68.62
2022-09-11T03:00:32.286Z,68.46
2022-09-11T03:02:59.413Z,68.18
2022-09-11T03:05:26.356Z,69.03
2022-09-11T03:07:53.170Z,68.71
2022-09-11T03:10:19.998Z,68.23
2022-09-11T03:12:47.022Z,68.17
2022-09-11T03:15:16.377Z,67.63
2022-09-11T03:17:43.171Z,67.35
2022-09-11T03:20:10.285Z,67.11
2022-09-11T03:22:37.057Z,67.71
2022-09-11T03:25:04.582Z,67.28
2022-09-11T03:27:31.466Z,67.63
2022-09-11T03:29:58.763Z,67.71
2022-09-11T03:32:25.481Z,67.82
2022-09-11T03:34:52.387Z,67.57
2022-09-11T03:37:19.122Z,67.66
2022-09-11T03:39:46.026Z,67.39
2022-09-11T03:42:12.928Z,67.68
2022-09-11T03:44:41.149Z,68.04
2022-09-11T03:47:09.218Z,68.25
2022-09-11T03:49:36.032Z,68.30
2022-09-11T03:52:02.989Z,67.72
2022-09-11T03:54:29.808Z,67.54
2022-09-11T03:56:56.593Z,67.33
2022-09-11T03:59:23.380Z,67.43
2022-09-11T04:01:50.979Z,67.21
2022-09-11T04:04:18.214Z,67.18
2022-09-11T04:06:45.064Z,67.43
2022-09-11T04:09:11.871Z,67.16
2022-09-11T04:11:41.744Z,67.08
2022-09-11T04:14:08.765Z,67.05
2022-09-11T04:16:35.805Z,67.11
2022-09-11T04:19:03.301Z,67.11
2022-09-11T04:21:31.385Z,67.04
2022-09-11T04:24:00.426Z,66.80
2022-09-11T04:26:33.044Z,66.83
2022-09-11T04:29:00.490Z,66.73
2022-09-11T04:31:27.962Z,66.86
2022-09-11T04:33:57.716Z,66.89
2022-09-11T04:36:27.158Z,67.08
2022-09-11T04:38:58.563Z,66.81
2022-09-11T04:41:26.333Z,67.20
2022-09-11T04:44:02.390Z,67.12
2022-09-11T04:46:31.786Z,67.79
2022-09-11T04:48:59.454Z,68.08
2022-09-11T04:51:29.260Z,68.57
2022-09-11T04:53:57.804Z,69.37
2022-09-11T04:56:30.143Z,68.82
2022-09-11T04:59:02.891Z,68.88
2022-09-11T05:01:31.393Z,67.95
2022-09-11T05:04:00.637Z,67.86
2022-09-11T05:06:30.362Z,67.25
2022-09-11T05:09:02.822Z,67.87
2022-09-11T05:11:30.425Z,67.62
2022-09-11T05:14:00.546Z,67.41
2022-09-11T05:16:29.680Z,67.16
2022-09-11T05:18:57.560Z,67.55
2022-09-11T05:21:26.813Z,67.29
2022-09-11T05:23:55.949Z,67.05
2022-09-11T05:26:34.049Z,67.04
2022-09-11T05:29:07.496Z,67.14
2022-09-11T05:31:34.911Z,67.58
2022-09-11T05:34:03.376Z,67.43
2022-09-11T05:36:33.620Z,67.00
2022-09-11T05:39:00.566Z,67.04
2022-09-11T05:41:27.755Z,66.91
2022-09-11T05:43:54.884Z,67.13
2022-09-11T05:46:22.138Z,67.06
2022-09-11T05:48:48.917Z,67.13
2022-09-11T05:51:19.405Z,66.50
2022-09-11T05:53:46.661Z,67.05
2022-09-11T05:56:14.561Z,67.18
2022-09-11T05:58:41.437Z,66.90
2022-09-11T06:01:14.289Z,67.00
2022-09-11T06:03:41.814Z,66.92
2022-09-11T06:06:11.608Z,66.95
2022-09-11T06:08:39.924Z,66.94
2022-09-11T06:11:08.445Z,67.18
2022-09-11T06:13:41.018Z,67.15
2022-09-11T06:16:18.396Z,67.12
2022-09-11T06:18:49.785Z,66.84
2022-09-11T06:21:20.347Z,66.86
2022-09-11T06:23:48.669Z,66.83
2022-09-11T06:26:18.579Z,66.75
2022-09-11T06:28:45.233Z,67.14
2022-09-11T06:31:13.666Z,66.94
2022-09-11T06:33:41.293Z,67.13
2022-09-11T06:36:11.760Z,67.13
2022-09-11T06:38:38.595Z,67.26
2022-09-11T06:41:12.947Z,67.27
2022-09-11T06:43:40.833Z,67.30
2022-09-11T06:46:12.950Z,67.62
2022-09-11T06:48:40.884Z,67.45
2022-09-11T06:51:11.515Z,67.61
2022-09-11T06:53:39.506Z,67.31
2022-09-11T06:56:07.188Z,67.47
2022-09-11T06:58:34.059Z,67.88
2022-09-11T07:01:04.641Z,68.38
2022-09-11T07:03:31.617Z,68.13
2022-09-11T07:05:58.917Z,68.56
2022-09-11T07:08:26.312Z,68.24
2022-09-11T07:10:53.730Z,67.98
2022-09-11T07:13:20.904Z,67.83
2022-09-11T07:15:50.499Z,68.03
2022-09-11T07:18:18.075Z,67.94
2022-09-11T07:20:44.836Z,67.30
2022-09-11T07:23:11.705Z,67.22
2022-09-11T07:25:41.472Z,66.79
2022-09-11T07:28:08.247Z,66.80
2022-09-11T07:30:35.508Z,66.75
2022-09-11T07:33:02.489Z,66.34
2022-09-11T07:35:29.199Z,65.72
2022-09-11T07:37:56.114Z,65.22
2022-09-11T07:40:22.821Z,65.04
2022-09-11T07:42:49.560Z,64.73
2022-09-11T07:45:19.780Z,64.23
2022-09-11T07:47:49.267Z,63.71
2022-09-11T07:50:18.729Z,63.54
2022-09-11T07:52:45.512Z,63.11
2022-09-11T07:55:12.212Z,62.38
2022-09-11T07:57:39.181Z,61.40
2022-09-11T08:00:07.789Z,60.74
2022-09-11T08:02:34.549Z,60.69
2022-09-11T08:05:02.505Z,60.66
2022-09-11T08:07:29.908Z,60.30
2022-09-11T08:10:23.271Z,59.67
2022-09-11T08:12:43.653Z,58.59
2022-09-11T08:15:10.472Z,57.75
2022-09-11T08:17:38.711Z,57.48
2022-09-11T08:20:06.064Z,57.30
2022-09-11T08:22:32.793Z,56.52
2022-09-11T08:24:59.504Z,56.41
2022-09-11T08:27:26.437Z,56.38
2022-09-11T08:29:54.186Z,55.50
2022-09-11T08:32:20.905Z,55.26
2022-09-11T08:34:48.284Z,54.62
2022-09-11T08:37:15.004Z,53.89
2022-09-11T08:39:41.700Z,53.74
2022-09-11T08:42:18.482Z,53.21
2022-09-11T08:44:50.458Z,52.76
2022-09-11T08:47:22.492Z,52.14
2022-09-11T08:49:59.407Z,52.33
2022-09-11T08:52:26.800Z,51.78
2022-09-11T08:54:58.220Z,51.02
2022-09-11T08:57:40.452Z,50.82
2022-09-11T09:00:23.501Z,50.53
2022-09-11T09:02:57.151Z,49.83
2022-09-11T09:05:54.925Z,49.40
2022-09-11T09:08:24.854Z,48.98
2022-09-11T09:11:15.793Z,48.47
2022-09-11T09:14:07.036Z,48.59
2022-09-11T09:16:58.049Z,47.89
2022-09-11T09:19:51.516Z,47.38
2022-09-11T09:22:35.515Z,46.70
2022-09-11T09:25:10.231Z,45.84
2022-09-11T09:28:00.511Z,45.80
2022-09-11T09:30:30.294Z,45.29
2022-09-11T09:33:22.766Z,45.11
2022-09-11T09:35:51.185Z,44.55
2022-09-11T09:38:26.388Z,44.30
2022-09-11T09:41:12.312Z,44.17
2022-09-11T09:44:00.941Z,44.10
2022-09-11T09:46:50.172Z,43.51
2022-09-11T09:49:27.623Z,43.31
2022-09-11T09:52:00.886Z,43.38
2022-09-11T09:54:34.214Z,42.50
2022-09-11T09:57:04.801Z,42.91
2022-09-11T09:59:43.288Z,42.96
2022-09-11T10:02:10.246Z,42.46
2022-09-11T10:04:37.028Z,41.14
2022-09-11T10:07:20.351Z,40.92
2022-09-11T10:09:51.753Z,40.74
2022-09-11T10:12:23.005Z,40.94
2022-09-11T10:14:54.309Z,40.61
2022-09-11T10:17:29.671Z,40.71
2022-09-11T10:20:12.316Z,40.54
2022-09-11T10:22:39.265Z,39.82
2022-09-11T10:25:10.970Z,39.96
2022-09-11T10:27:51.293Z,39.83
2022-09-11T10:30:31.789Z,40.13
2022-09-11T10:33:03.479Z,39.37
2022-09-11T10:35:33.882Z,39.67
2022-09-11T10:38:20.559Z,39.62
2022-09-11T10:41:10.132Z,38.95
2022-09-11T10:44:00.765Z,38.78
2022-09-11T10:46:40.018Z,38.06
2022-09-11T10:49:06.977Z,37.94
2022-09-11T10:51:55.158Z,37.80
2022-09-11T10:54:38.946Z,38.71
2022-09-11T10:57:30.692Z,39.30
2022-09-11T11:00:06.781Z,38.88
2022-09-11T11:02:37.674Z,38.36
2022-09-11T11:05:29.771Z,38.52
2022-09-11T11:08:04.981Z,38.86
2022-09-11T11:10:51.485Z,38.96
2022-09-11T11:13:42.796Z,38.63
2022-09-11T11:16:39.964Z,38.20
2022-09-11T11:19:43.459Z,38.35
2022-09-11T11:22:22.541Z,37.31
2022-09-11T11:24:54.930Z,37.41
2022-09-11T11:27:33.725Z,37.49
2022-09-11T11:30:19.371Z,39.07
2022-09-11T11:33:04.901Z,38.13
2022-09-11T11:36:04.528Z,38.07
2022-09-11T11:38:34.392Z,37.51
2022-09-11T11:41:09.820Z,36.43
2022-09-11T11:43:41.170Z,36.13
2022-09-11T11:46:33.635Z,36.19
2022-09-11T11:49:05.952Z,35.74
2022-09-11T11:51:44.610Z,34.75
2022-09-11T11:54:26.076Z,35.58
2022-09-11T11:56:56.684Z,33.86
2022-09-11T11:59:42.386Z,33.51
2022-09-11T12:02:09.196Z,33.26
2022-09-11T12:04:45.270Z,32.32
2022-09-11T12:07:30.342Z,32.09
2022-09-11T12:09:59.820Z,31.60
2022-09-11T12:12:30.140Z,30.52
2022-09-11T12:15:05.262Z,29.96
2022-09-11T12:17:34.695Z,28.99
2022-09-11T12:20:13.600Z,28.43
2022-09-11T12:22:48.876Z,28.56
2022-09-11T12:25:21.884Z,27.29
2022-09-11T12:27:51.984Z,26.75
2022-09-11T12:30:18.708Z,26.77
2022-09-11T12:32:53.416Z,26.64
2022-09-11T12:35:43.306Z,26.50
2022-09-11T12:38:10.086Z,26.33
2022-09-11T12:40:52.918Z,27.12
2022-09-11T12:43:20.768Z,27.25
2022-09-11T12:45:48.476Z,27.05
2022-09-11T12:48:22.601Z,26.01
2022-09-11T12:50:52.986Z,25.65
2022-09-11T12:53:28.173Z,26.24
2022-09-11T12:56:03.359Z,25.24
2022-09-11T12:58:55.702Z,25.22
2022-09-11T13:01:47.093Z,25.61
2022-09-11T13:04:22.248Z,25.27
2022-09-11T13:06:56.332Z,25.00
2022-09-11T13:09:48.365Z,25.76
2022-09-11T13:12:24.361Z,29.02
2022-09-11T13:14:52.339Z,30.92
2022-09-11T13:17:31.825Z,32.71
2022-09-11T13:20:10.855Z,34.08
2022-09-11T13:22:38.663Z,34.71
2022-09-11T13:25:18.639Z,36.28
2022-09-11T13:27:50.090Z,37.02
2022-09-11T13:30:20.117Z,37.78
2022-09-11T13:32:49.866Z,38.61
2022-09-11T13:35:23.714Z,39.15
2022-09-11T13:38:07.017Z,39.83
2022-09-11T13:40:54.901Z,40.20
2022-09-11T13:43:57.529Z,40.79
2022-09-11T13:46:26.332Z,41.09
2022-09-11T13:48:58.302Z,41.93
2022-09-11T13:51:29.993Z,42.42
2022-09-11T13:54:00.664Z,42.88
2022-09-11T13:56:41.820Z,43.21
2022-09-11T13:59:39.570Z,43.65
2022-09-11T14:02:34.954Z,43.80
2022-09-11T14:05:27.174Z,44.31
2022-09-11T14:07:56.878Z,44.42
2022-09-11T14:10:23.794Z,44.68
2022-09-11T14:13:17.038Z,44.75
2022-09-11T14:15:57.683Z,45.05
2022-09-11T14:18:55.983Z,45.38
2022-09-11T14:21:26.423Z,45.56
2022-09-11T14:23:54.324Z,45.96
2022-09-11T14:26:24.457Z,46.02
2022-09-11T14:29:00.332Z,46.40
2022-09-11T14:31:40.305Z,46.93
2022-09-11T14:34:36.895Z,46.92
2022-09-11T14:37:08.264Z,47.59
2022-09-11T14:39:48.154Z,47.52
2022-09-11T14:42:21.376Z,47.93
2022-09-11T14:44:48.394Z,47.69
2022-09-11T14:47:23.886Z,48.26
2022-09-11T14:49:57.744Z,48.49
2022-09-11T14:52:27.241Z,48.98
2022-09-11T14:54:54.363Z,48.58
2022-09-11T14:57:27.650Z,49.14
2022-09-11T14:59:54.473Z,49.44
2022-09-11T15:02:29.678Z,49.38
2022-09-11T15:04:58.314Z,49.11
2022-09-11T15:07:27.482Z,49.23
2022-09-11T15:09:55.457Z,49.36
2022-09-11T15:12:23.675Z,49.98
2022-09-11T15:14:59.024Z,50.42
2022-09-11T15:17:31.873Z,50.17
2022-09-11T15:20:00.480Z,50.55
2022-09-11T15:22:27.558Z,50.48
2022-09-11T15:24:56.739Z,50.18
2022-09-11T15:27:25.395Z,50.10
2022-09-11T15:29:52.716Z,50.39
2022-09-11T15:32:21.387Z,50.53
2022-09-11T15:34:48.194Z,50.55
2022-09-11T15:37:17.082Z,50.60
2022-09-11T15:39:44.063Z,50.98
2022-09-11T15:42:12.075Z,51.19
2022-09-11T15:44:38.928Z,51.33
2022-09-11T15:47:06.469Z,50.99
2022-09-11T15:49:33.237Z,51.29
2022-09-11T15:52:00.609Z,50.95
2022-09-11T15:54:27.853Z,51.75
2022-09-11T15:56:55.016Z,51.70
2022-09-11T15:59:21.799Z,51.50
2022-09-11T16:01:49.053Z,51.42
2022-09-11T16:04:20.344Z,51.56
2022-09-11T16:06:49.305Z,51.84
2022-09-11T16:09:19.417Z,51.50
2022-09-11T16:11:48.143Z,51.89
2022-09-11T16:14:21.671Z,51.85
2022-09-11T16:16:48.677Z,52.00
2022-09-11T16:19:17.428Z,51.77
2022-09-11T16:21:44.681Z,51.76
2022-09-11T16:24:13.716Z,52.06
2022-09-11T16:26:40.819Z,52.07
2022-09-11T16:29:10.066Z,52.14
2022-09-11T16:31:36.917Z,52.23
2022-09-11T16:34:04.732Z,52.37
2022-09-11T16:36:38.605Z,52.62
2022-09-11T16:39:14.369Z,52.57
2022-09-11T16:41:41.244Z,52.65
2022-09-11T16:44:10.884Z,52.42
2022-09-11T16:46:38.291Z,52.88
2022-09-11T16:49:06.378Z,52.50
2022-09-11T16:51:34.317Z,52.56
2022-09-11T16:54:02.150Z,52.80
2022-09-11T16:56:29.200Z,52.64
2022-09-11T16:58:56.027Z,52.58
2022-09-11T17:01:25.901Z,52.38
2022-09-11T17:03:54.401Z,52.53
2022-09-11T17:06:22.886Z,52.97
2022-09-11T17:08:51.448Z,52.98
2022-09-11T17:11:22.123Z,52.92
2022-09-11T17:13:50.555Z,52.93
2022-09-11T17:16:20.506Z,52.96
2022-09-11T17:18:49.079Z,52.84
2022-09-11T17:21:17.478Z,53.11
2022-09-11T17:23:44.229Z,52.99
2022-09-11T17:26:14.388Z,53.34
2022-09-11T17:28:42.831Z,53.58
2022-09-11T17:31:11.423Z,53.74
2022-09-11T17:33:40.574Z,53.86
2022-09-11T17:36:10.165Z,53.92
2022-09-11T17:38:37.400Z,53.35
2022-09-11T17:41:07.113Z,53.47
2022-09-11T17:43:35.063Z,53.61
2022-09-11T17:46:04.998Z,53.56
2022-09-11T17:48:32.604Z,53.68
2022-09-11T17:51:11.289Z,53.52
2022-09-11T17:53:41.681Z,53.87
2022-09-11T17:56:14.721Z,53.83
2022-09-11T17:58:45.248Z,53.93
2022-09-11T18:01:16.656Z,53.53
2022-09-11T18:03:44.042Z,53.87
2022-09-11T18:06:40.526Z,53.77
2022-09-11T18:09:16.489Z,53.69
2022-09-11T18:11:45.433Z,53.79
2022-09-11T18:14:13.933Z,54.45
2022-09-11T18:16:44.470Z,54.36
2022-09-11T18:19:14.488Z,54.53
2022-09-11T18:21:41.645Z,54.26
2022-09-11T18:24:09.920Z,54.45
2022-09-11T18:26:40.225Z,54.62
2022-09-11T18:29:16.262Z,54.96
2022-09-11T18:31:45.527Z,55.04
2022-09-11T18:34:15.384Z,55.64
2022-09-11T18:36:42.711Z,55.35
2022-09-11T18:39:12.272Z,55.50
2022-09-11T18:41:38.890Z,54.94
2022-09-11T18:44:12.623Z,55.53
2022-09-11T18:46:42.171Z,55.90
2022-09-11T18:49:13.414Z,56.01
2022-09-11T18:51:45.494Z,56.27
2022-09-11T18:54:18.403Z,56.30
2022-09-11T18:56:45.818Z,56.06
2022-09-11T18:59:13.702Z,55.92
2022-09-11T19:01:41.444Z,56.04
2022-09-11T19:04:10.472Z,56.32
2022-09-11T19:06:38.944Z,56.49
2022-09-11T19:09:10.597Z,56.53
2022-09-11T19:11:38.065Z,56.85
2022-09-11T19:14:07.114Z,57.03
2022-09-11T19:16:34.686Z,56.67
2022-09-11T19:19:02.949Z,57.01
2022-09-11T19:21:29.998Z,56.90
2022-09-11T19:24:00.371Z,57.18
2022-09-11T19:26:33.786Z,57.27
2022-09-11T19:29:01.320Z,57.66
2022-09-11T19:31:29.821Z,57.55
2022-09-11T19:34:00.268Z,57.47
2022-09-11T19:36:32.424Z,57.55
2022-09-11T19:39:00.656Z,57.52
2022-09-11T19:41:33.757Z,57.63
2022-09-11T19:44:02.397Z,57.89
2022-09-11T19:46:30.701Z,57.69
2022-09-11T19:49:00.531Z,57.80
2022-09-11T19:51:30.119Z,57.69
2022-09-11T19:54:00.186Z,57.45
2022-09-11T19:56:28.157Z,57.95
2022-09-11T19:58:55.655Z,57.70
2022-09-11T20:01:24.726Z,57.58
2022-09-11T20:03:54.248Z,57.50
2022-09-11T20:06:24.795Z,57.62
2022-09-11T20:09:07.644Z,57.77
2022-09-11T20:11:40.533Z,57.58
2022-09-11T20:14:07.602Z,57.41
2022-09-11T20:16:34.520Z,57.48
2022-09-11T20:19:07.280Z,57.45
2022-09-11T20:21:36.237Z,57.60
2022-09-11T20:24:05.422Z,58.00
2022-09-11T20:26:32.962Z,57.81
2022-09-11T20:29:09.210Z,57.43
2022-09-11T20:31:48.863Z,57.44
2022-09-11T20:34:19.950Z,57.96
2022-09-11T20:36:48.979Z,58.03
2022-09-11T20:39:16.618Z,57.89
2022-09-11T20:41:44.047Z,58.11
2022-09-11T20:44:11.771Z,58.07
2022-09-11T20:46:38.714Z,57.73
2022-09-11T20:49:05.566Z,57.80
2022-09-11T20:51:33.193Z,58.20
2022-09-11T20:54:00.532Z,57.81
2022-09-11T20:56:28.264Z,58.10
2022-09-11T20:58:55.396Z,58.14
2022-09-11T21:01:23.877Z,58.37
2022-09-11T21:03:52.975Z,58.05
2022-09-11T21:06:25.868Z,58.43
2022-09-11T21:08:56.044Z,58.39
2022-09-11T21:11:23.538Z,58.00
2022-09-11T21:13:50.353Z,58.06
2022-09-11T21:16:20.039Z,58.66
2022-09-11T21:18:50.133Z,58.73
2022-09-11T21:21:17.685Z,58.89
2022-09-11T21:23:45.036Z,58.99
2022-09-11T21:26:13.879Z,58.91
2022-09-11T21:28:41.202Z,59.09
2022-09-11T21:31:08.074Z,58.62
2022-09-11T21:33:36.747Z,58.91
2022-09-11T21:36:04.978Z,58.78
2022-09-11T21:38:31.860Z,58.87
2022-09-11T21:41:01.216Z,59.12
2022-09-11T21:43:28.932Z,58.97
2022-09-11T21:45:55.711Z,58.64
2022-09-11T21:48:23.513Z,58.84
2022-09-11T21:50:50.342Z,58.47
2022-09-11T21:53:17.133Z,58.47
2022-09-11T21:55:45.796Z,58.50
2022-09-11T21:58:18.868Z,58.72
2022-09-11T22:00:48.365Z,58.49
2022-09-11T22:03:17.236Z,58.43
2022-09-11T22:05:46.555Z,58.60
2022-09-11T22:08:15.491Z,58.56
2022-09-11T22:10:50.749Z,58.73
2022-09-11T22:13:19.446Z,58.83
2022-09-11T22:15:48.808Z,59.09
2022-09-11T22:18:16.629Z,58.85
2022-09-11T22:20:43.724Z,59.12
2022-09-11T22:23:15.893Z,58.59
2022-09-11T22:25:43.453Z,59.00
2022-09-11T22:28:10.460Z,58.90
2022-09-11T22:30:41.598Z,59.18
2022-09-11T22:33:08.571Z,58.88
2022-09-11T22:35:36.028Z,59.18
2022-09-11T22:38:02.783Z,59.19
2022-09-11T22:40:29.509Z,59.14
2022-09-11T22:42:56.335Z,59.38
2022-09-11T22:45:23.054Z,59.09
2022-09-11T22:47:50.011Z,59.54
2022-09-11T22:50:17.225Z,59.47
2022-09-11T22:52:44.008Z,59.74
2022-09-11T22:55:11.464Z,59.91
2022-09-11T22:57:38.879Z,60.26
2022-09-11T23:00:09.151Z,60.46
2022-09-11T23:02:38.842Z,61.29
2022-09-11T23:05:24.778Z,61.92
2022-09-11T23:07:53.040Z,61.79
2022-09-11T23:10:23.739Z,61.39
2022-09-11T23:12:54.048Z,61.52
2022-09-11T23:15:21.602Z,62.12
2022-09-11T23:17:48.462Z,61.76
2022-09-11T23:20:15.390Z,61.63
2022-09-11T23:22:42.297Z,61.98
2022-09-11T23:25:17.016Z,61.93
2022-09-11T23:27:44.864Z,61.63
2022-09-11T23:30:11.885Z,61.75
2022-09-11T23:32:41.770Z,61.83
2022-09-11T23:35:09.811Z,61.93
2022-09-11T23:37:36.872Z,62.26
2022-09-11T23:40:07.068Z,62.70
2022-09-11T23:42:33.889Z,62.37
2022-09-11T23:45:00.601Z,62.65
2022-09-11T23:47:29.983Z,62.48
2022-09-11T23:49:57.882Z,62.08
2022-09-11T23:52:24.867Z,62.33
2022-09-11T23:54:51.733Z,62.31
2022-09-11T23:57:18.457Z,62.44
2022-09-11T23:59:48.295Z,62.58
